Terminal Aerodrome Forecast
Issued by NWS

Current Version | Previous Version | Text Only | Print | Product List | Glossary On
Versions: 1 2 3 4 5 6 7 8 9 10 11 12 13 14
077
FTUS41 KPBZ 211122
TAFBVI
TAF
KBVI 211122Z 2112/2212 26002KT 3SM BR SCT002 BKN045
     FM211300 29004KT P6SM BKN040=

USA.gov is the U.S. government's official web portal to all federal, state and local government web resources and services.